createdAt,value
2022-09-07T00:00:06.024Z,84.21
2022-09-07T00:05:08.710Z,83.83
2022-09-07T00:10:10.421Z,81.98
2022-09-07T00:15:12.848Z,81.78
2022-09-07T00:20:15.105Z,81.83
2022-09-07T00:25:17.073Z,83.06
2022-09-07T00:30:18.774Z,83.89
2022-09-07T00:35:20.477Z,84.53
2022-09-07T00:40:22.145Z,85.38
2022-09-07T00:45:24.205Z,85.65
2022-09-07T00:50:35.178Z,85.83
2022-09-07T00:55:38.449Z,84.88
2022-09-07T01:00:41.771Z,85.05
2022-09-07T01:05:48.533Z,85.84
2022-09-07T01:10:50.293Z,85.60
2022-09-07T01:16:01.059Z,85.82
2022-09-07T01:21:14.431Z,83.94
2022-09-07T01:26:51.691Z,83.67
2022-09-07T01:32:05.409Z,84.78
2022-09-07T01:37:46.231Z,84.98
2022-09-07T01:43:04.445Z,85.21
2022-09-07T01:48:10.361Z,85.52
2022-09-07T01:53:17.962Z,85.61
2022-09-07T01:58:40.996Z,86.09
2022-09-07T02:03:46.895Z,86.08
2022-09-07T02:09:30.278Z,86.80
2022-09-07T02:14:41.502Z,87.49
2022-09-07T02:19:54.518Z,87.38
2022-09-07T02:25:00.044Z,87.48
2022-09-07T02:30:02.127Z,86.60
2022-09-07T02:35:04.972Z,88.01
2022-09-07T02:40:07.179Z,88.17
2022-09-07T02:45:12.021Z,87.62
2022-09-07T02:50:37.485Z,88.36
2022-09-07T02:55:45.609Z,89.32
2022-09-07T03:01:06.032Z,90.50
2022-09-07T03:06:32.614Z,90.77
2022-09-07T03:11:37.679Z,91.15
2022-09-07T03:16:39.675Z,91.91
2022-09-07T03:21:41.487Z,92.00
2022-09-07T03:26:46.813Z,92.38
2022-09-07T03:31:48.626Z,93.09
2022-09-07T03:36:50.401Z,93.04
2022-09-07T03:41:52.025Z,92.79
2022-09-07T03:46:53.759Z,92.64
2022-09-07T03:51:55.583Z,91.79
2022-09-07T03:56:57.385Z,92.39
2022-09-07T04:01:59.132Z,92.34
2022-09-07T04:07:00.870Z,92.53
2022-09-07T04:12:02.944Z,92.44
2022-09-07T04:17:04.681Z,93.12
2022-09-07T04:22:06.327Z,92.93
2022-09-07T04:27:08.051Z,92.10
2022-09-07T04:32:13.477Z,92.07
2022-09-07T04:37:17.313Z,91.38
2022-09-07T04:42:18.940Z,91.29
2022-09-07T04:47:20.671Z,90.98
2022-09-07T04:52:22.615Z,91.42
2022-09-07T04:57:26.538Z,91.22
2022-09-07T05:02:28.299Z,91.56
2022-09-07T05:07:30.059Z,92.56
2022-09-07T05:12:31.739Z,92.80
2022-09-07T05:17:33.447Z,92.68
2022-09-07T05:22:35.614Z,89.94
2022-09-07T05:27:37.302Z,90.59
2022-09-07T05:32:38.951Z,90.63
2022-09-07T05:37:40.971Z,90.57
2022-09-07T05:42:42.660Z,90.92
2022-09-07T05:47:44.313Z,91.24
2022-09-07T05:52:47.844Z,92.27
2022-09-07T05:57:49.808Z,92.09
2022-09-07T06:02:51.588Z,91.92
2022-09-07T06:07:53.303Z,92.83
2022-09-07T06:12:54.904Z,93.02
2022-09-07T06:17:56.627Z,92.75
2022-09-07T06:22:58.946Z,92.80
2022-09-07T06:28:00.891Z,93.66
2022-09-07T06:33:02.530Z,94.16
2022-09-07T06:38:04.294Z,95.29
2022-09-07T06:43:06.416Z,96.03
2022-09-07T06:48:08.079Z,97.11
2022-09-07T06:58:31.974Z,96.12
2022-09-07T07:03:34.506Z,95.91
2022-09-07T07:08:36.534Z,94.83
2022-09-07T07:13:40.233Z,92.46
2022-09-07T07:18:43.377Z,91.11
2022-09-07T07:23:49.327Z,90.22
2022-09-07T07:29:07.090Z,89.00
2022-09-07T07:34:09.119Z,87.69
2022-09-07T07:44:32.904Z,85.47
2022-09-07T07:49:34.561Z,84.92
2022-09-07T07:54:39.204Z,85.20
2022-09-07T07:59:40.802Z,85.64
2022-09-07T08:04:42.593Z,85.75
2022-09-07T08:09:46.143Z,85.26
2022-09-07T08:14:48.295Z,85.80
2022-09-07T08:19:50.989Z,84.88
2022-09-07T08:24:52.871Z,84.56
2022-09-07T08:29:54.935Z,83.56
2022-09-07T08:34:56.751Z,82.34
2022-09-07T08:39:58.556Z,81.47
2022-09-07T08:45:11.611Z,82.06
2022-09-07T08:50:29.341Z,81.67
2022-09-07T08:55:36.372Z,81.29
2022-09-07T09:00:39.663Z,81.02
2022-09-07T09:05:55.290Z,79.58
2022-09-07T09:11:03.051Z,79.35
2022-09-07T09:16:18.932Z,78.96
2022-09-07T09:21:20.969Z,78.40
2022-09-07T09:26:25.356Z,77.07
2022-09-07T09:31:35.171Z,75.57
2022-09-07T09:36:54.712Z,76.53
2022-09-07T09:41:59.794Z,71.42
2022-09-07T09:52:29.701Z,69.82
2022-09-07T10:08:58.886Z,71.34
2022-09-07T10:14:00.784Z,71.12
2022-09-07T10:19:03.190Z,71.66
2022-09-07T10:24:04.765Z,69.92
2022-09-07T10:29:15.238Z,69.35
2022-09-07T10:34:27.482Z,69.65
2022-09-07T10:39:43.658Z,69.96
2022-09-07T10:45:10.315Z,68.30
2022-09-07T10:50:32.929Z,68.72
2022-09-07T10:55:38.456Z,67.66
2022-09-07T11:01:09.813Z,68.16
2022-09-07T11:06:37.665Z,67.65
2022-09-07T11:17:27.517Z,66.79
2022-09-07T11:22:52.025Z,65.98
2022-09-07T11:28:20.108Z,65.94
2022-09-07T11:33:30.574Z,63.24
2022-09-07T11:38:39.406Z,64.22
2022-09-07T11:43:55.653Z,61.38
2022-09-07T11:48:58.355Z,61.11
2022-09-07T11:54:17.232Z,62.12
2022-09-07T11:59:38.217Z,61.94
2022-09-07T12:05:02.752Z,62.01
2022-09-07T12:10:36.531Z,61.39
2022-09-07T12:15:57.193Z,60.52
2022-09-07T12:20:59.302Z,60.05
2022-09-07T12:26:35.640Z,60.65
2022-09-07T12:31:59.836Z,59.63
2022-09-07T12:37:12.460Z,59.20
2022-09-07T12:42:37.971Z,58.03
2022-09-07T12:47:40.427Z,57.68
2022-09-07T12:52:48.700Z,56.73
2022-09-07T12:58:17.329Z,56.84
2022-09-07T13:03:51.819Z,58.44
2022-09-07T13:08:54.119Z,56.44
2022-09-07T13:14:14.345Z,57.29
2022-09-07T13:20:02.572Z,57.00
2022-09-07T13:25:23.647Z,53.83
2022-09-07T13:30:36.353Z,54.12
2022-09-07T13:35:39.030Z,50.72
2022-09-07T13:40:46.561Z,52.32
2022-09-07T13:45:53.999Z,52.92
2022-09-07T13:51:23.937Z,52.76
2022-09-07T13:56:37.439Z,52.21
2022-09-07T14:01:45.005Z,50.96
2022-09-07T14:06:46.665Z,51.73
2022-09-07T14:11:54.096Z,52.43
2022-09-07T14:17:02.471Z,52.27
2022-09-07T14:22:14.350Z,50.50
2022-09-07T14:27:37.637Z,49.94
2022-09-07T14:32:39.284Z,49.39
2022-09-07T14:37:41.706Z,49.56
2022-09-07T14:42:43.379Z,49.64
2022-09-07T14:47:47.186Z,49.46
2022-09-07T14:58:15.483Z,51.00
2022-09-07T15:03:33.791Z,51.71
2022-09-07T15:08:38.683Z,51.80
2022-09-07T15:13:44.970Z,51.22
2022-09-07T15:18:54.397Z,52.30
2022-09-07T15:23:58.493Z,51.74
2022-09-07T15:29:15.481Z,51.06
2022-09-07T15:34:19.703Z,49.99
2022-09-07T15:39:25.248Z,49.87
2022-09-07T15:44:28.569Z,50.78
2022-09-07T15:49:30.295Z,50.55
2022-09-07T15:54:35.089Z,49.29
2022-09-07T15:59:38.754Z,49.85
2022-09-07T16:04:41.188Z,48.55
2022-09-07T16:09:43.376Z,48.25
2022-09-07T16:14:45.254Z,48.79
2022-09-07T16:19:46.895Z,54.20
2022-09-07T16:24:48.849Z,56.16
2022-09-07T16:29:51.614Z,57.80
2022-09-07T16:34:53.318Z,59.11
2022-09-07T16:39:55.159Z,60.18
2022-09-07T16:46:02.544Z,61.54
2022-09-07T16:50:18.535Z,63.54
2022-09-07T16:55:20.666Z,64.60
2022-09-07T17:00:22.361Z,65.07
2022-09-07T17:05:24.083Z,66.18
2022-09-07T17:10:26.140Z,67.24
2022-09-07T17:15:27.776Z,68.83
2022-09-07T17:20:29.430Z,69.86
2022-09-07T17:25:33.200Z,70.58
2022-09-07T17:30:35.402Z,71.81
2022-09-07T17:35:37.522Z,72.44
2022-09-07T17:40:39.232Z,72.52
2022-09-07T17:45:40.955Z,73.48
2022-09-07T17:50:42.773Z,75.00
2022-09-07T17:55:44.884Z,75.30
2022-09-07T18:00:47.457Z,75.72
2022-09-07T18:05:53.734Z,75.99
2022-09-07T18:16:32.735Z,77.67
2022-09-07T18:21:36.552Z,78.19
2022-09-07T18:26:41.221Z,78.03
2022-09-07T18:31:42.978Z,78.30
2022-09-07T18:36:44.734Z,78.86
2022-09-07T18:41:46.549Z,78.52
2022-09-07T18:46:48.170Z,78.29
2022-09-07T18:57:11.890Z,78.40
2022-09-07T19:02:14.258Z,77.97
2022-09-07T19:07:16.005Z,77.96
2022-09-07T19:12:17.582Z,77.94
2022-09-07T19:17:19.315Z,77.60
2022-09-07T19:22:20.981Z,76.89
2022-09-07T19:27:22.604Z,78.10
2022-09-07T19:32:25.525Z,78.30
2022-09-07T19:37:28.881Z,77.85
2022-09-07T19:42:30.750Z,77.49
2022-09-07T19:47:33.619Z,77.44
2022-09-07T19:52:35.314Z,77.70
2022-09-07T19:57:37.260Z,78.05
2022-09-07T20:02:39.557Z,78.71
2022-09-07T20:07:41.307Z,79.33
2022-09-07T20:12:43.147Z,79.39
2022-09-07T20:17:47.013Z,79.96
2022-09-07T20:22:49.057Z,80.43
2022-09-07T20:27:51.243Z,80.16
2022-09-07T20:32:53.081Z,79.95
2022-09-07T20:37:54.891Z,79.78
2022-09-07T20:43:06.005Z,79.41
2022-09-07T20:48:07.912Z,79.49
2022-09-07T20:53:09.589Z,79.63
2022-09-07T20:58:11.522Z,79.22
2022-09-07T21:03:14.609Z,79.03
2022-09-07T21:08:16.560Z,79.41
2022-09-07T21:13:18.245Z,79.75
2022-09-07T21:18:19.878Z,79.88
2022-09-07T21:23:22.042Z,80.54
2022-09-07T21:28:24.570Z,81.26
2022-09-07T21:33:27.698Z,81.53
2022-09-07T21:38:29.442Z,81.36
2022-09-07T21:43:31.225Z,81.38
2022-09-07T21:48:33.231Z,80.94
2022-09-07T21:53:35.322Z,80.88
2022-09-07T21:58:37.064Z,80.69
2022-09-07T22:03:40.368Z,80.76
2022-09-07T22:08:42.524Z,81.62
2022-09-07T22:13:44.694Z,81.99
2022-09-07T22:18:46.592Z,81.75
2022-09-07T22:23:50.977Z,80.97
2022-09-07T22:28:53.102Z,80.84
2022-09-07T22:33:56.760Z,80.67
2022-09-07T22:39:00.549Z,80.98
2022-09-07T22:44:02.830Z,81.53
2022-09-07T22:49:05.819Z,81.74
2022-09-07T22:54:08.420Z,81.73
2022-09-07T22:59:10.446Z,81.87
2022-09-07T23:04:13.248Z,80.75
2022-09-07T23:09:17.383Z,82.21
2022-09-07T23:14:22.100Z,83.09
2022-09-07T23:19:23.860Z,84.36
2022-09-07T23:24:25.499Z,85.96
2022-09-07T23:29:27.122Z,88.63
2022-09-07T23:34:28.716Z,90.34
2022-09-07T23:39:30.458Z,92.63
2022-09-07T23:44:32.070Z,93.76
2022-09-07T23:49:33.600Z,94.24
2022-09-07T23:54:35.263Z,95.22
2022-09-07T23:59:36.947Z,95.44
